Cullman, Alabama
Current Conditions -  °F | °C
As of 3:35 AM on Friday 31 Oct 2014 (Local Time) from KCMD Reporting Station
Clear Clear  
Wind Chill: 41°   Ceiling: Unl
Heat Index: 41°   Visibility: 10mi
Dew Point: 40°   Wind: 0mph
Humidity: 98%   Direction: NA
Pressure: 30.01"   Gusts: NA
Location:  34.17°N, 86.84°W
Report Text: KCMD 310835Z AUTO 00000KT 10SM CLR 05/05 A3001 RMK AO2 T00480045
Loading
Personal Weather Stations






























Interactive Weather Map New forecast layout! Learn more

10-Day Weather Forecast

Advertisements
Track Severe Weather on mobile